createdAt,value
2022-12-04T00:00:27.439Z,87.35
2022-12-04T00:02:54.319Z,87.97
2022-12-04T00:05:21.143Z,86.85
2022-12-04T00:07:47.888Z,87.90
2022-12-04T00:10:14.712Z,87.63
2022-12-04T00:12:41.430Z,88.27
2022-12-04T00:15:25.893Z,89.03
2022-12-04T00:17:53.952Z,88.84
2022-12-04T00:20:20.673Z,88.88
2022-12-04T00:22:47.444Z,90.17
2022-12-04T00:25:14.157Z,90.53
2022-12-04T00:27:41.043Z,90.92
2022-12-04T00:30:08.602Z,90.46
2022-12-04T00:32:35.395Z,90.42
2022-12-04T00:35:02.271Z,91.57
2022-12-04T00:37:28.944Z,90.70
2022-12-04T00:39:55.851Z,91.94
2022-12-04T00:42:22.760Z,91.99
2022-12-04T00:44:49.583Z,90.92
2022-12-04T00:47:16.352Z,90.15
2022-12-04T00:49:43.105Z,91.84
2022-12-04T00:52:09.824Z,90.89
2022-12-04T00:54:36.544Z,91.27
2022-12-04T00:57:03.342Z,92.86
2022-12-04T00:59:30.144Z,91.98
2022-12-04T01:01:56.832Z,91.69
2022-12-04T01:04:23.566Z,91.07
2022-12-04T01:06:50.278Z,91.87
2022-12-04T01:09:17.117Z,91.26
2022-12-04T01:11:43.837Z,91.83
2022-12-04T01:14:10.557Z,91.31
2022-12-04T01:16:39.456Z,91.04
2022-12-04T01:19:08.911Z,93.05
2022-12-04T01:21:36.751Z,91.86
2022-12-04T01:24:04.639Z,91.16
2022-12-04T01:26:31.909Z,90.88
2022-12-04T01:28:59.269Z,91.64
2022-12-04T01:31:26.273Z,90.62
2022-12-04T01:33:53.313Z,90.11
2022-12-04T01:36:23.293Z,90.67
2022-12-04T01:38:50.702Z,91.25
2022-12-04T01:41:23.993Z,91.04
2022-12-04T01:44:22.958Z,92.70
2022-12-04T01:46:53.902Z,90.37
2022-12-04T01:49:43.464Z,92.43
2022-12-04T01:52:22.102Z,90.66
2022-12-04T01:55:00.827Z,91.29
2022-12-04T01:57:32.119Z,90.03
2022-12-04T02:00:11.315Z,90.66
2022-12-04T02:02:47.679Z,90.72
2022-12-04T02:05:17.905Z,91.16
2022-12-04T02:07:47.255Z,92.43
2022-12-04T02:10:14.847Z,90.43
2022-12-04T02:12:56.284Z,91.28
2022-12-04T02:15:36.666Z,90.48
2022-12-04T02:18:31.204Z,90.52
2022-12-04T02:21:06.355Z,91.00
2022-12-04T02:24:00.504Z,89.56
2022-12-04T02:26:51.348Z,91.13
2022-12-04T02:29:18.074Z,90.79
2022-12-04T02:31:55.428Z,91.19
2022-12-04T02:34:28.119Z,91.66
2022-12-04T02:37:03.951Z,91.26
2022-12-04T02:39:44.508Z,92.21
2022-12-04T02:42:19.471Z,90.93
2022-12-04T02:45:08.483Z,91.55
2022-12-04T02:47:38.103Z,91.73
2022-12-04T02:50:10.271Z,90.80
2022-12-04T02:52:42.743Z,91.14
2022-12-04T02:55:19.102Z,90.65
2022-12-04T02:57:51.031Z,91.34
2022-12-04T03:00:19.063Z,90.14
2022-12-04T03:02:56.592Z,92.02
2022-12-04T03:05:34.914Z,91.98
2022-12-04T03:08:08.675Z,92.46
2022-12-04T03:10:42.113Z,90.40
2022-12-04T03:13:29.232Z,91.43
2022-12-04T03:16:07.073Z,91.10
2022-12-04T03:18:40.722Z,91.27
2022-12-04T03:21:15.352Z,90.11
2022-12-04T03:24:05.342Z,91.05
2022-12-04T03:26:45.269Z,91.73
2022-12-04T03:29:33.750Z,91.81
2022-12-04T03:32:24.391Z,90.17
2022-12-04T03:34:58.470Z,89.45
2022-12-04T03:38:00.033Z,90.47
2022-12-04T03:40:34.323Z,91.18
2022-12-04T03:43:12.590Z,91.00
2022-12-04T03:45:52.784Z,89.58
2022-12-04T03:48:26.501Z,89.61
2022-12-04T03:51:06.749Z,90.26
2022-12-04T03:53:37.024Z,89.78
2022-12-04T03:56:14.043Z,90.04
2022-12-04T03:58:47.344Z,89.60
2022-12-04T04:01:19.037Z,89.62
2022-12-04T04:03:50.967Z,89.96
2022-12-04T04:06:32.779Z,90.51
2022-12-04T04:09:05.606Z,90.11
2022-12-04T04:11:38.446Z,90.89
2022-12-04T04:14:33.175Z,90.94
2022-12-04T04:17:23.833Z,89.51
2022-12-04T04:20:16.830Z,89.42
2022-12-04T04:23:03.829Z,90.68
2022-12-04T04:25:31.470Z,89.19
2022-12-04T04:27:58.941Z,89.11
2022-12-04T04:30:29.630Z,90.87
2022-12-04T04:33:16.342Z,90.41
2022-12-04T04:36:11.062Z,89.45
2022-12-04T04:38:46.024Z,90.38
2022-12-04T04:41:39.563Z,90.67
2022-12-04T04:44:18.110Z,90.05
2022-12-04T04:46:58.545Z,90.13
2022-12-04T04:49:30.383Z,89.71
2022-12-04T04:51:58.463Z,89.65
2022-12-04T04:54:27.469Z,90.31
2022-12-04T04:56:54.204Z,90.28
2022-12-04T04:59:20.991Z,89.17
2022-12-04T05:01:48.562Z,89.47
2022-12-04T05:04:15.409Z,89.93
2022-12-04T05:06:42.153Z,89.10
2022-12-04T05:09:08.884Z,89.33
2022-12-04T05:11:35.668Z,90.28
2022-12-04T05:14:02.432Z,89.38
2022-12-04T05:16:29.257Z,89.45
2022-12-04T05:19:14.443Z,89.62
2022-12-04T05:21:41.750Z,90.24
2022-12-04T05:24:09.542Z,89.89
2022-12-04T05:26:36.669Z,90.37
2022-12-04T05:29:03.474Z,90.73
2022-12-04T05:31:30.273Z,90.12
2022-12-04T05:33:57.386Z,90.69
2022-12-04T05:36:24.224Z,90.38
2022-12-04T05:38:50.994Z,89.60
2022-12-04T05:41:17.712Z,89.89
2022-12-04T05:43:44.504Z,90.67
2022-12-04T05:46:11.254Z,90.40
2022-12-04T05:56:01.609Z,89.65
2022-12-04T05:58:28.808Z,89.56
2022-12-04T06:00:55.967Z,90.00
2022-12-04T06:03:23.098Z,90.53
2022-12-04T06:05:49.929Z,90.39
2022-12-04T06:08:16.893Z,90.68
2022-12-04T06:10:43.632Z,91.12
2022-12-04T06:13:11.405Z,91.23
2022-12-04T06:15:39.687Z,90.43
2022-12-04T06:18:06.551Z,90.87
2022-12-04T06:20:34.293Z,91.31
2022-12-04T06:23:01.361Z,90.69
2022-12-04T06:25:28.114Z,89.99
2022-12-04T06:27:54.864Z,89.78
2022-12-04T06:30:21.593Z,90.64
2022-12-04T06:32:48.278Z,90.62
2022-12-04T06:35:15.033Z,90.70
2022-12-04T06:37:41.784Z,89.87
2022-12-04T06:40:09.030Z,90.24
2022-12-04T06:42:35.790Z,90.63
2022-12-04T06:45:02.585Z,90.10
2022-12-04T06:47:29.304Z,90.33
2022-12-04T06:49:56.307Z,91.01
2022-12-04T06:52:23.195Z,90.64
2022-12-04T06:54:49.906Z,90.20
2022-12-04T06:57:16.636Z,91.12
2022-12-04T06:59:43.431Z,90.74
2022-12-04T07:02:10.937Z,91.41
2022-12-04T07:04:37.769Z,90.68
2022-12-04T07:07:04.567Z,90.13
2022-12-04T07:09:31.272Z,90.61
2022-12-04T07:11:58.032Z,90.16
2022-12-04T07:14:24.747Z,91.67
2022-12-04T07:16:51.631Z,90.48
2022-12-04T07:19:18.365Z,90.83
2022-12-04T07:21:45.115Z,91.23
2022-12-04T07:24:17.082Z,90.94
2022-12-04T07:26:44.556Z,91.11
2022-12-04T07:29:11.190Z,90.85
2022-12-04T07:31:38.429Z,90.41
2022-12-04T07:34:05.311Z,90.58
2022-12-04T07:36:31.985Z,90.21
2022-12-04T07:38:58.786Z,90.08
2022-12-04T07:41:25.543Z,90.68
2022-12-04T07:43:52.278Z,90.59
2022-12-04T07:46:21.674Z,90.66
2022-12-04T07:48:48.464Z,91.10
2022-12-04T07:51:18.312Z,90.54
2022-12-04T07:53:45.626Z,90.56
2022-12-04T07:56:13.305Z,90.31
2022-12-04T07:58:41.033Z,90.78
2022-12-04T08:01:20.420Z,90.49
2022-12-04T08:03:49.172Z,90.79
2022-12-04T08:06:18.200Z,90.41
2022-12-04T08:08:45.114Z,90.63
2022-12-04T08:11:15.284Z,90.16
2022-12-04T08:13:42.278Z,90.93
2022-12-04T08:16:10.687Z,90.51
2022-12-04T08:18:38.399Z,90.52
2022-12-04T08:21:06.835Z,90.99
2022-12-04T08:23:34.755Z,91.10
2022-12-04T08:26:01.844Z,90.40
2022-12-04T08:28:29.796Z,90.91
2022-12-04T08:31:12.832Z,90.48
2022-12-04T08:33:39.944Z,90.28
2022-12-04T08:36:11.753Z,90.11
2022-12-04T08:38:38.786Z,89.90
2022-12-04T08:41:07.792Z,91.30
2022-12-04T08:43:34.911Z,90.99
2022-12-04T08:46:05.509Z,90.90
2022-12-04T08:48:33.107Z,90.61
2022-12-04T08:51:00.905Z,90.84
2022-12-04T08:53:27.783Z,90.38
2022-12-04T08:55:54.539Z,90.91
2022-12-04T08:58:21.433Z,90.87
2022-12-04T09:00:48.392Z,91.18
2022-12-04T09:03:17.478Z,90.91
2022-12-04T09:05:48.046Z,91.39
2022-12-04T09:08:16.311Z,91.27
2022-12-04T09:10:44.094Z,91.73
2022-12-04T09:13:11.047Z,91.60
2022-12-04T09:15:41.477Z,91.43
2022-12-04T09:18:09.357Z,91.71
2022-12-04T09:20:36.804Z,92.10
2022-12-04T09:23:05.587Z,91.96
2022-12-04T09:25:36.467Z,91.86
2022-12-04T09:28:03.991Z,92.06
2022-12-04T09:30:30.714Z,92.08
2022-12-04T09:32:57.471Z,91.72
2022-12-04T09:35:24.237Z,91.14
2022-12-04T09:37:50.977Z,90.95
2022-12-04T09:40:35.262Z,92.52
2022-12-04T09:43:33.913Z,92.40
2022-12-04T09:46:09.621Z,92.17
2022-12-04T09:48:40.069Z,91.72
2022-12-04T09:51:18.470Z,92.93
2022-12-04T09:53:56.623Z,92.38
2022-12-04T09:56:29.433Z,92.07
2022-12-04T09:59:11.342Z,92.83
2022-12-04T10:01:48.834Z,92.08
2022-12-04T10:04:17.392Z,92.15
2022-12-04T10:06:59.425Z,92.36
2022-12-04T10:09:52.402Z,92.64
2022-12-04T10:12:37.347Z,92.62
2022-12-04T10:15:09.146Z,92.49
2022-12-04T10:18:07.046Z,92.72
2022-12-04T10:21:06.913Z,93.89
2022-12-04T10:23:55.390Z,94.05
2022-12-04T10:26:28.473Z,93.12
2022-12-04T10:29:03.638Z,93.67
2022-12-04T10:31:33.382Z,93.41
2022-12-04T10:34:13.713Z,93.40
2022-12-04T10:36:44.965Z,93.26
2022-12-04T10:39:22.192Z,94.14
2022-12-04T10:41:51.913Z,93.37
2022-12-04T10:44:20.355Z,93.87
2022-12-04T10:46:47.659Z,93.25
2022-12-04T10:49:19.870Z,93.39
2022-12-04T10:51:47.550Z,94.16
2022-12-04T10:54:22.190Z,93.88
2022-12-04T10:56:52.546Z,93.86
2022-12-04T10:59:19.350Z,93.92
2022-12-04T11:01:46.539Z,92.98
2022-12-04T11:04:26.872Z,93.69
2022-12-04T11:07:19.505Z,93.76
2022-12-04T11:09:59.125Z,94.16
2022-12-04T11:12:26.197Z,93.55
2022-12-04T11:15:08.068Z,93.70
2022-12-04T11:17:34.789Z,94.02
2022-12-04T11:20:05.488Z,93.98
2022-12-04T11:22:33.711Z,94.15
2022-12-04T11:25:00.591Z,93.13
2022-12-04T11:27:33.565Z,93.90
2022-12-04T11:30:10.853Z,93.58
2022-12-04T11:32:38.851Z,93.52
2022-12-04T11:35:27.398Z,93.48
2022-12-04T11:38:06.683Z,93.64
2022-12-04T11:40:34.767Z,93.83
2022-12-04T11:43:06.235Z,93.74
2022-12-04T11:45:33.842Z,93.32
2022-12-04T11:48:03.952Z,93.10
2022-12-04T11:50:52.118Z,93.49
2022-12-04T11:53:32.063Z,94.20
2022-12-04T11:56:10.752Z,94.20
2022-12-04T11:58:47.184Z,93.68
2022-12-04T12:01:19.470Z,94.25
2022-12-04T12:04:13.871Z,93.83
2022-12-04T12:06:55.155Z,93.06
2022-12-04T12:09:47.912Z,93.37
2022-12-04T12:12:27.580Z,93.35
2022-12-04T12:15:12.612Z,93.93
2022-12-04T12:17:50.428Z,93.59
2022-12-04T12:20:35.671Z,93.93
2022-12-04T12:23:07.352Z,93.71
2022-12-04T12:25:56.392Z,93.29
2022-12-04T12:28:53.886Z,93.52
2022-12-04T12:31:41.001Z,93.51
2022-12-04T12:34:10.630Z,93.65
2022-12-04T12:36:47.468Z,94.13
2022-12-04T12:39:25.077Z,93.18
2022-12-04T12:41:59.703Z,94.58
2022-12-04T12:44:44.355Z,94.23
2022-12-04T12:47:19.791Z,94.39
2022-12-04T12:49:55.795Z,94.30
2022-12-04T12:52:36.117Z,94.62
2022-12-04T12:55:23.118Z,94.33
2022-12-04T12:58:04.756Z,94.80
2022-12-04T13:00:36.951Z,95.05
2022-12-04T13:03:37.310Z,94.71
2022-12-04T13:06:09.599Z,94.49
2022-12-04T13:08:49.233Z,94.38
2022-12-04T13:11:22.671Z,94.24
2022-12-04T13:13:55.671Z,94.49
2022-12-04T13:16:36.312Z,94.96
2022-12-04T13:19:24.314Z,94.76
2022-12-04T13:22:24.188Z,94.96
2022-12-04T13:25:23.318Z,94.72
2022-12-04T13:28:15.808Z,94.39
2022-12-04T13:31:26.145Z,94.04
2022-12-04T13:34:22.045Z,94.00
2022-12-04T13:37:27.206Z,94.44
2022-12-04T13:40:16.197Z,95.12
2022-12-04T13:42:43.196Z,94.08
2022-12-04T13:45:28.733Z,94.02
2022-12-04T13:48:00.688Z,94.69
2022-12-04T13:50:40.047Z,94.67
2022-12-04T13:53:26.990Z,94.63
2022-12-04T13:55:57.230Z,94.56
2022-12-04T13:58:31.346Z,94.63
2022-12-04T14:01:02.930Z,94.52
2022-12-04T14:03:49.030Z,94.75
2022-12-04T14:06:26.151Z,94.44
2022-12-04T14:09:03.025Z,94.68
2022-12-04T14:11:42.505Z,94.14
2022-12-04T14:14:24.968Z,94.76
2022-12-04T14:16:52.814Z,94.07
2022-12-04T14:19:53.390Z,94.34
2022-12-04T14:22:43.987Z,95.58
2022-12-04T14:25:13.708Z,96.48
2022-12-04T14:27:52.545Z,96.82
2022-12-04T14:30:21.025Z,97.84
2022-12-04T14:32:54.865Z,96.69
2022-12-04T14:35:24.913Z,97.68
2022-12-04T14:38:01.986Z,98.51
2022-12-04T14:40:44.565Z,98.49
2022-12-04T14:43:21.352Z,99.04
2022-12-04T14:46:00.270Z,99.12
2022-12-04T14:48:42.916Z,99.56
2022-12-04T14:51:30.595Z,100.00
2022-12-04T14:54:09.432Z,98.90
2022-12-04T14:57:12.153Z,97.93
2022-12-04T14:59:52.073Z,96.56
2022-12-04T15:02:28.709Z,95.94
2022-12-04T15:04:56.709Z,95.82
2022-12-04T15:07:31.182Z,95.93
2022-12-04T15:10:19.025Z,95.73
2022-12-04T15:12:52.025Z,95.85
2022-12-04T15:15:32.288Z,95.97
2022-12-04T15:18:13.805Z,95.99
2022-12-04T15:20:49.788Z,95.86
2022-12-04T15:23:35.622Z,95.04
2022-12-04T15:26:16.390Z,95.75
2022-12-04T15:28:49.912Z,95.05
2022-12-04T15:31:25.749Z,95.45
2022-12-04T15:33:56.782Z,96.29
2022-12-04T15:36:42.594Z,96.96
2022-12-04T15:39:16.427Z,96.52
2022-12-04T15:41:43.233Z,96.40
2022-12-04T15:44:30.032Z,96.21
2022-12-04T15:47:01.366Z,96.13
2022-12-04T15:49:31.075Z,96.89
2022-12-04T15:52:14.549Z,97.21
2022-12-04T15:54:48.355Z,98.52
2022-12-04T15:57:29.357Z,98.66
2022-12-04T16:00:01.280Z,97.77
2022-12-04T16:02:43.032Z,97.77
2022-12-04T16:05:21.873Z,97.65
2022-12-04T16:07:58.205Z,98.37
2022-12-04T16:10:34.234Z,96.97
2022-12-04T16:13:04.063Z,98.03
2022-12-04T16:15:41.661Z,98.71
2022-12-04T16:18:13.432Z,99.39
2022-12-04T16:20:41.391Z,100.00
2022-12-04T16:23:08.234Z,100.00
2022-12-04T16:25:34.954Z,100.00
2022-12-04T16:28:02.104Z,99.82
2022-12-04T16:30:32.956Z,100.00
2022-12-04T16:32:59.790Z,100.00
2022-12-04T16:35:26.584Z,100.00
2022-12-04T16:37:53.423Z,100.00
2022-12-04T16:40:20.183Z,100.00
2022-12-04T16:42:48.305Z,100.00
2022-12-04T16:45:31.510Z,100.00
2022-12-04T16:47:58.608Z,99.87
2022-12-04T16:50:27.145Z,99.53
2022-12-04T16:52:54.703Z,99.36
2022-12-04T16:55:39.951Z,97.94
2022-12-04T16:58:08.187Z,98.10
2022-12-04T17:00:36.556Z,98.43
2022-12-04T17:03:04.555Z,97.95
2022-12-04T17:05:35.833Z,98.32
2022-12-04T17:08:02.673Z,98.05
2022-12-04T17:10:30.232Z,99.21
2022-12-04T17:12:57.842Z,99.69
2022-12-04T17:15:24.806Z,99.32
2022-12-04T17:17:51.984Z,98.85
2022-12-04T17:20:20.512Z,99.38
2022-12-04T17:22:48.112Z,99.29
2022-12-04T17:25:16.511Z,98.97
2022-12-04T17:27:43.745Z,98.46
2022-12-04T17:30:12.145Z,99.75
2022-12-04T17:32:39.063Z,98.97
2022-12-04T17:35:07.106Z,98.25
2022-12-04T17:37:34.876Z,98.84
2022-12-04T17:40:01.913Z,98.28
2022-12-04T17:42:28.666Z,98.17
2022-12-04T17:44:55.707Z,97.30
2022-12-04T17:47:22.746Z,97.35
2022-12-04T17:49:49.543Z,98.36
2022-12-04T17:52:16.408Z,97.54
2022-12-04T17:54:43.167Z,97.92
2022-12-04T17:57:09.847Z,98.30
2022-12-04T17:59:36.675Z,98.66
2022-12-04T18:02:03.432Z,98.72
2022-12-04T18:04:30.313Z,98.59
2022-12-04T18:06:57.074Z,98.67
2022-12-04T18:09:23.831Z,98.60
2022-12-04T18:11:50.553Z,100.00
2022-12-04T18:14:22.264Z,99.70
2022-12-04T18:16:53.325Z,100.00
2022-12-04T18:19:22.275Z,99.82
2022-12-04T18:21:49.681Z,99.46
2022-12-04T18:24:17.071Z,99.50
2022-12-04T18:26:48.184Z,100.00
2022-12-04T18:29:20.706Z,99.45
2022-12-04T18:31:48.124Z,98.67
2022-12-04T18:34:15.471Z,99.30
2022-12-04T18:36:45.361Z,98.24
2022-12-04T18:39:16.834Z,98.67
2022-12-04T18:41:44.480Z,97.98
2022-12-04T18:44:11.585Z,97.89
2022-12-04T18:46:38.499Z,97.51
2022-12-04T18:49:05.865Z,96.72
2022-12-04T18:51:39.570Z,97.06
2022-12-04T18:54:21.829Z,96.96
2022-12-04T18:56:48.608Z,97.40
2022-12-04T18:59:18.527Z,96.92
2022-12-04T19:01:45.592Z,96.59
2022-12-04T19:04:13.994Z,97.14
2022-12-04T19:06:43.038Z,97.04
2022-12-04T19:09:12.851Z,97.46
2022-12-04T19:11:40.753Z,97.45
2022-12-04T19:14:16.107Z,97.63
2022-12-04T19:16:43.897Z,97.53
2022-12-04T19:19:15.653Z,97.34
2022-12-04T19:21:42.449Z,97.27
2022-12-04T19:24:10.665Z,97.39
2022-12-04T19:26:38.428Z,97.37
2022-12-04T19:29:06.154Z,97.40
2022-12-04T19:31:35.731Z,97.80
2022-12-04T19:34:02.993Z,98.74
2022-12-04T19:36:31.467Z,98.00
2022-12-04T19:38:59.027Z,97.50
2022-12-04T19:41:30.229Z,97.38
2022-12-04T19:43:59.387Z,97.68
2022-12-04T19:46:28.711Z,97.15
2022-12-04T19:48:58.786Z,97.01
2022-12-04T19:51:26.096Z,96.60
2022-12-04T19:53:54.833Z,96.59
2022-12-04T19:56:24.847Z,96.62
2022-12-04T19:58:53.332Z,97.38
2022-12-04T20:01:25.170Z,97.68
2022-12-04T20:03:52.191Z,97.00
2022-12-04T20:06:21.316Z,96.81
2022-12-04T20:08:53.113Z,96.51
2022-12-04T20:11:20.552Z,96.75
2022-12-04T20:13:49.312Z,97.49
2022-12-04T20:16:18.512Z,98.11
2022-12-04T20:18:46.188Z,98.50
2022-12-04T20:21:13.915Z,98.24
2022-12-04T20:23:43.034Z,98.21
2022-12-04T20:26:13.391Z,98.45
2022-12-04T20:28:41.271Z,98.66
2022-12-04T20:31:26.526Z,98.10
2022-12-04T20:33:55.424Z,98.06
2022-12-04T20:36:24.600Z,97.50
2022-12-04T20:38:58.150Z,97.39
2022-12-04T20:41:26.905Z,96.74
2022-12-04T20:43:53.759Z,96.26
2022-12-04T20:46:31.766Z,95.78
2022-12-04T20:49:00.709Z,96.55
2022-12-04T20:51:37.359Z,96.24
2022-12-04T20:54:05.127Z,96.49
2022-12-04T20:56:35.348Z,96.17
2022-12-04T20:59:05.079Z,95.90
2022-12-04T21:01:33.440Z,96.11
2022-12-04T21:04:01.689Z,96.10
2022-12-04T21:06:36.279Z,95.54
2022-12-04T21:09:08.999Z,95.62
2022-12-04T21:11:48.038Z,95.22
2022-12-04T21:14:45.886Z,96.02
2022-12-04T21:17:19.025Z,95.61
2022-12-04T21:19:47.751Z,96.13
2022-12-04T21:22:14.647Z,96.23
2022-12-04T21:24:42.337Z,96.20
2022-12-04T21:27:13.297Z,96.80
2022-12-04T21:29:43.848Z,96.92
2022-12-04T21:32:10.788Z,96.50
2022-12-04T21:34:37.590Z,97.04
2022-12-04T21:37:04.427Z,97.22
2022-12-04T21:39:31.187Z,97.26
2022-12-04T21:42:16.625Z,96.56
2022-12-04T21:44:43.623Z,96.48
2022-12-04T21:47:10.451Z,96.21
2022-12-04T21:49:37.187Z,97.42
2022-12-04T21:52:03.903Z,96.96
2022-12-04T21:54:30.834Z,97.08
2022-12-04T21:56:58.385Z,96.83
2022-12-04T21:59:26.148Z,96.47
2022-12-04T22:01:53.662Z,96.55
2022-12-04T22:04:21.121Z,96.52
2022-12-04T22:06:47.853Z,96.36
2022-12-04T22:09:14.710Z,97.99
2022-12-04T22:11:42.914Z,97.86
2022-12-04T22:14:11.438Z,97.96
2022-12-04T22:16:41.836Z,98.46
2022-12-04T22:19:13.079Z,98.39
2022-12-04T22:21:40.229Z,98.15
2022-12-04T22:24:07.567Z,97.33
2022-12-04T22:26:34.525Z,97.22
2022-12-04T22:29:03.166Z,97.16
2022-12-04T22:31:32.319Z,97.44
2022-12-04T22:34:00.677Z,96.80
2022-12-04T22:36:32.383Z,96.57
2022-12-04T22:39:09.342Z,97.22
2022-12-04T22:41:37.636Z,96.39
2022-12-04T22:44:05.273Z,96.78
2022-12-04T22:46:32.940Z,96.10
2022-12-04T22:49:00.144Z,95.84
2022-12-04T22:51:27.791Z,96.28
2022-12-04T22:53:57.435Z,96.03
2022-12-04T22:56:28.423Z,96.68
2022-12-04T22:58:56.464Z,96.35
2022-12-04T23:01:25.784Z,96.72
2022-12-04T23:03:53.844Z,96.10
2022-12-04T23:06:22.473Z,96.46
2022-12-04T23:08:49.312Z,96.05
2022-12-04T23:11:20.794Z,96.59
2022-12-04T23:13:52.108Z,96.18
2022-12-04T23:16:20.876Z,96.43
2022-12-04T23:18:48.490Z,96.22
2022-12-04T23:21:16.435Z,96.30
2022-12-04T23:23:45.031Z,96.66
2022-12-04T23:26:14.832Z,97.16
2022-12-04T23:28:41.591Z,96.82
2022-12-04T23:31:08.505Z,96.76
2022-12-04T23:33:35.431Z,96.84
2022-12-04T23:36:03.706Z,96.78
2022-12-04T23:38:31.145Z,96.72
2022-12-04T23:41:22.586Z,97.01
2022-12-04T23:43:50.423Z,96.65
2022-12-04T23:46:19.920Z,96.78
2022-12-04T23:48:47.753Z,96.50
2022-12-04T23:51:17.345Z,97.23
2022-12-04T23:53:45.184Z,96.70
2022-12-04T23:56:17.625Z,96.88
2022-12-04T23:58:45.945Z,97.92
